UUOB

Belgorod International Airport

Belgorod, Russian Federation
TAF UUOB 251700Z 2518/2603 28003MPS 9999 BKN030 TEMPO 2600/2603 3100 BR BKN011
Issued Valid From Valid To
Sep-25 @ 17:00 UTC
(45 minutes ago)
Sep-25 @ 18:00 UTC
(in 15 minutes)
Sep-26 @ 03:00 UTC
(in 9 hours)
Sep-25 @ 18:00 to Sep-26 @ 03:00
TAF UUOB 251700Z 2518/2603 28003MPS 9999 BKN030
Wind Visibility Clouds
280° at 6 knots 10,000+ meters
  • Broken at 3,000' AGL
Temporary Sep-26 @ 00:00 to Sep-26 @ 03:00
TEMPO 2600/2603 3100 BR BKN011
Visibility Clouds Conditions
3,106 meters
  • Broken at 1,100' AGL
  • Mist
TAF UUOB 251700Z 2518/2603 28003MPS 9999 BKN030 TEMPO 2600/2603 3100 BR BKN011
Issued Sep-25 @ 17:00 UTC
(45 minutes ago)
Valid From Sep-25 @ 18:00 UTC
(in 15 minutes)
Valid To Sep-26 @ 03:00 UTC
(in 9 hours)
Sep-25 @ 18:00 - Sep-26 @ 03:00
Wind Visibility
280° at 6 knots 10,000+ meters
Clouds
  • Broken at 3,000' AGL
Temporary Sep-26 @ 00:00 - Sep-26 @ 03:00
Clouds
  • Broken at 1,100' AGL
Conditions
  • Mist